Tatiana 1 — 9HA2824 — position and weather

sailwx.info

Track history (hours):
 
Tides and Currents Weather Stations Pressure Air Temp Water Temp Dewpoint Dewpoint Depression Visibility Wind Speed Wind Dir Waves Ship Positions

Tatiana 1

Last reported at 2016-May-29 21:32 UTC. Time now 2016-May-30 08:52 UTC.
Position N 42°25' E 018°42'.

Length 47 m; draft 1.8 m.

Type: Other ship. MMSI: 256188000.

Date/timePositionNaut miles runAvg speedWind from/ knotsBaromVisibWave heightAir tempDewpointWater temp
2016-May-29 21:32N 42°25' E 018°42'0 0.0
2016-May-29 20:32N 42°25' E 018°42'0 0.0
2016-May-29 19:32N 42°25' E 018°42'0 0.0
2016-May-29 18:32N 42°25' E 018°42'0 0.0
2016-May-29 17:32N 42°25' E 018°42'0 0.0
2016-May-29 16:32N 42°25' E 018°42'0 0.0
2016-May-29 15:32N 42°25' E 018°42'0 0.0
2016-May-29 14:32N 42°25' E 018°42'0 0.0
2016-May-29 13:32N 42°25' E 018°42'0 0.0
2016-May-29 12:32N 42°25' E 018°42'0 0.0
2016-May-29 11:32N 42°25' E 018°42'0 0.0
2016-May-29 10:32N 42°25' E 018°42'0 0.1
2016-May-29 09:32N 42°25' E 018°42'0 0.0
2016-May-29 08:32N 42°25' E 018°42'0 0.0
2016-May-29 07:32N 42°25' E 018°42'0 0.0
2016-May-29 06:32N 42°25' E 018°42'0 0.0
2016-May-29 05:32N 42°25' E 018°42'0 0.0
2016-May-29 04:32N 42°25' E 018°42'0 0.0
2016-May-29 03:32N 42°25' E 018°42'0 0.0
2016-May-29 02:32N 42°25' E 018°42'0 0.0
2016-May-29 01:32N 42°25' E 018°42'0 0.0
2016-May-29 00:32N 42°25' E 018°42'0 0.0
2016-May-28 23:32N 42°25' E 018°42'0 0.0
2016-May-28 22:32N 42°25' E 018°42'0 0.0
2016-May-28 21:32N 42°25' E 018°42'0 0.0
2016-May-28 20:32N 42°25' E 018°42'0 0.0
2016-May-28 19:32N 42°25' E 018°42'0 0.0
2016-May-28 18:32N 42°25' E 018°42'0 0.0
2016-May-28 17:32N 42°25' E 018°42'0 0.0
2016-May-28 16:32N 42°25' E 018°42'0 0.0
2016-May-28 15:32N 42°25' E 018°42'0 0.0
2016-May-28 14:32N 42°25' E 018°42'0 0.0
2016-May-28 13:32N 42°25' E 018°42'1 1.0
2016-May-28 12:33N 42°26' E 018°41'0 0.3
2016-May-28 11:32N 42°26' E 018°41'0 0.0
2016-May-28 10:32N 42°26' E 018°41'0 0.0
2016-May-28 09:32N 42°26' E 018°41'0 0.0
2016-May-28 08:32N 42°26' E 018°41'0 0.0
2016-May-28 07:32N 42°26' E 018°41'0 0.0
2016-May-28 06:32N 42°26' E 018°41'2 2.0
2016-May-28 05:34N 42°26' E 018°39'5 4.7
2016-May-28 04:33N 42°24' E 018°33'1010.0
2016-May-28 03:33N 42°14' E 018°34'10 9.5
2016-May-28 02:33N 42°05' E 018°36'254 8.5
2016-May-26 20:33N 38°13' E 020°53'9 9.3
2016-May-26 19:33N 38°04' E 020°56'10 9.7
2016-May-26 18:33N 37°55' E 021°00'184 6.8
2016-May-25 15:34N 37°19' E 024°48'1310.2
2016-May-25 14:15N 37°24' E 025°04'710.1
2016-May-25 13:33N 37°28' E 025°11'261 8.1
2016-May-24 05:20N 40°54' E 028°37'8 9.7
2016-May-24 04:30N 40°55' E 028°47'4 0.4
2016-May-23 18:22N 40°57' E 028°52'0 0.0
2016-May-23 17:16N 40°57' E 028°52'0 0.0
2016-May-23 16:28N 40°57' E 028°52'  
Track history (hours):
 
Tides and Currents Weather Stations Pressure Air Temp Water Temp Dewpoint Dewpoint Depression Visibility Wind Speed Wind Dir Waves Ship Positions

Tatiana 1

Last reported at 2016-May-29 21:32 UTC. Time now 2016-May-30 08:52 UTC.
Position N 42°25' E 018°42'.

Length 47 m; draft 1.8 m.

Type: Other ship. MMSI: 256188000.

Date/timePositionNaut miles runAvg speedWind from/ knotsBaromVisibWave heightAir tempDewpointWater temp
2016-May-29 21:32N 42°25' E 018°42'0 0.0
2016-May-29 20:32N 42°25' E 018°42'0 0.0
2016-May-29 19:32N 42°25' E 018°42'0 0.0
2016-May-29 18:32N 42°25' E 018°42'0 0.0
2016-May-29 17:32N 42°25' E 018°42'0 0.0
2016-May-29 16:32N 42°25' E 018°42'0 0.0
2016-May-29 15:32N 42°25' E 018°42'0 0.0
2016-May-29 14:32N 42°25' E 018°42'0 0.0
2016-May-29 13:32N 42°25' E 018°42'0 0.0
2016-May-29 12:32N 42°25' E 018°42'0 0.0
2016-May-29 11:32N 42°25' E 018°42'0 0.0
2016-May-29 10:32N 42°25' E 018°42'0 0.1
2016-May-29 09:32N 42°25' E 018°42'0 0.0
2016-May-29 08:32N 42°25' E 018°42'0 0.0
2016-May-29 07:32N 42°25' E 018°42'0 0.0
2016-May-29 06:32N 42°25' E 018°42'0 0.0
2016-May-29 05:32N 42°25' E 018°42'0 0.0
2016-May-29 04:32N 42°25' E 018°42'0 0.0
2016-May-29 03:32N 42°25' E 018°42'0 0.0
2016-May-29 02:32N 42°25' E 018°42'0 0.0
2016-May-29 01:32N 42°25' E 018°42'0 0.0
2016-May-29 00:32N 42°25' E 018°42'0 0.0
2016-May-28 23:32N 42°25' E 018°42'0 0.0
2016-May-28 22:32N 42°25' E 018°42'0 0.0
2016-May-28 21:32N 42°25' E 018°42'0 0.0
2016-May-28 20:32N 42°25' E 018°42'0 0.0
2016-May-28 19:32N 42°25' E 018°42'0 0.0
2016-May-28 18:32N 42°25' E 018°42'0 0.0
2016-May-28 17:32N 42°25' E 018°42'0 0.0
2016-May-28 16:32N 42°25' E 018°42'0 0.0
2016-May-28 15:32N 42°25' E 018°42'0 0.0
2016-May-28 14:32N 42°25' E 018°42'0 0.0
2016-May-28 13:32N 42°25' E 018°42'1 1.0
2016-May-28 12:33N 42°26' E 018°41'0 0.3
2016-May-28 11:32N 42°26' E 018°41'0 0.0
2016-May-28 10:32N 42°26' E 018°41'0 0.0
2016-May-28 09:32N 42°26' E 018°41'0 0.0
2016-May-28 08:32N 42°26' E 018°41'0 0.0
2016-May-28 07:32N 42°26' E 018°41'0 0.0
2016-May-28 06:32N 42°26' E 018°41'2 2.0
2016-May-28 05:34N 42°26' E 018°39'5 4.7
2016-May-28 04:33N 42°24' E 018°33'1010.0
2016-May-28 03:33N 42°14' E 018°34'10 9.5
2016-May-28 02:33N 42°05' E 018°36'254 8.5
2016-May-26 20:33N 38°13' E 020°53'9 9.3
2016-May-26 19:33N 38°04' E 020°56'10 9.7
2016-May-26 18:33N 37°55' E 021°00'184 6.8
2016-May-25 15:34N 37°19' E 024°48'1310.2
2016-May-25 14:15N 37°24' E 025°04'710.1
2016-May-25 13:33N 37°28' E 025°11'261 8.1
2016-May-24 05:20N 40°54' E 028°37'8 9.7
2016-May-24 04:30N 40°55' E 028°47'4 0.4
2016-May-23 18:22N 40°57' E 028°52'0 0.0
2016-May-23 17:16N 40°57' E 028°52'0 0.0
2016-May-23 16:28N 40°57' E 028°52'  

Dump ship's entire track history